sensor_id;sensor_type;location;lat;lon;timestamp;pressure;altitude;pressure_sealevel;temperature;humidity
44734;BME280;30462;52.446;-1.930;2023-02-28T00:00:19;102033.6133;;;;
44734;BME280;30462;52.446;-1.930;2023-02-28T00:01:18;102033.0391;;;;
44734;BME280;30462;52.446;-1.930;2023-02-28T00:02:18;102032.0156;;;;
44734;BME280;30462;52.446;-1.930;2023-02-28T00:03:18;102035.4375;;;;
44734;BME280;30462;52.446;-1.930;2023-02-28T00:04:18;102030.9531;;;;
44734;BME280;30462;52.446;-1.930;2023-02-28T00:05:19;102032.0469;;;;
44734;BME280;30462;52.446;-1.930;2023-02-28T00:06:18;102033.3047;;;;
44734;BME280;30462;52.446;-1.930;2023-02-28T00:07:18;102030.7422;;;;
44734;BME280;30462;52.446;-1.930;2023-02-28T00:08:17;102036.1133;;;;
44734;BME280;30462;52.446;-1.930;2023-02-28T00:09:18;102032.3359;;;;
44734;BME280;30462;52.446;-1.930;2023-02-28T00:10:19;102036.0508;;;;
44734;BME280;30462;52.446;-1.930;2023-02-28T00:11:18;102039.3633;;;;
44734;BME280;30462;52.446;-1.930;2023-02-28T00:12:18;102036.2852;;;;
44734;BME280;30462;52.446;-1.930;2023-02-28T00:13:18;102039.3008;;;;
44734;BME280;30462;52.446;-1.930;2023-02-28T00:14:18;102038.5391;;;;
44734;BME280;30462;52.446;-1.930;2023-02-28T00:15:18;102038.4258;;;;
44734;BME280;30462;52.446;-1.930;2023-02-28T00:16:19;102042.6133;;;;
44734;BME280;30462;52.446;-1.930;2023-02-28T00:17:18;102042.207;;;;
44734;BME280;30462;52.446;-1.930;2023-02-28T00:18:18;102040.3867;;;;
44734;BME280;30462;52.446;-1.930;2023-02-28T00:19:18;102039.9375;;;;
44734;BME280;30462;52.446;-1.930;2023-02-28T00:20:18;102038.1094;;;;
44734;BME280;30462;52.446;-1.930;2023-02-28T00:21:18;102039.7344;;;;
44734;BME280;30462;52.446;-1.930;2023-02-28T00:22:19;102037.4922;;;;
44734;BME280;30462;52.446;-1.930;2023-02-28T00:23:18;102037.0781;;;;
44734;BME280;30462;52.446;-1.930;2023-02-28T00:24:18;102038.3398;;;;
44734;BME280;30462;52.446;-1.930;2023-02-28T00:25:19;102039.3086;;;;
44734;BME280;30462;52.446;-1.930;2023-02-28T00:26:18;102038.8359;;;;
44734;BME280;30462;52.446;-1.930;2023-02-28T00:27:18;102039.5703;;;;
44734;BME280;30462;52.446;-1.930;2023-02-28T00:28:18;102035.3398;;;;
44734;BME280;30462;52.446;-1.930;2023-02-28T00:29:17;102035.543;;;;
44734;BME280;30462;52.446;-1.930;2023-02-28T00:30:19;102033.3945;;;;
44734;BME280;30462;52.446;-1.930;2023-02-28T00:31:18;102031.5234;;;;
44734;BME280;30462;52.446;-1.930;2023-02-28T00:32:18;102037.4336;;;;
44734;BME280;30462;52.446;-1.930;2023-02-28T00:33:18;102031.082;;;;
44734;BME280;30462;52.446;-1.930;2023-02-28T00:34:18;102032.0625;;;;
44734;BME280;30462;52.446;-1.930;2023-02-28T00:35:17;102035.6055;;;;
44734;BME280;30462;52.446;-1.930;2023-02-28T00:36:17;102036.7031;;;;
44734;BME280;30462;52.446;-1.930;2023-02-28T00:37:17;102037.7617;;;;
44734;BME280;30462;52.446;-1.930;2023-02-28T00:38:18;102040.4414;;;;
44734;BME280;30462;52.446;-1.930;2023-02-28T00:39:17;102035.8398;;;;
44734;BME280;30462;52.446;-1.930;2023-02-28T00:40:18;102034.0117;;;;
44734;BME280;30462;52.446;-1.930;2023-02-28T00:41:18;102038.1992;;;;
44734;BME280;30462;52.446;-1.930;2023-02-28T00:42:18;102034.457;;;;
44734;BME280;30462;52.446;-1.930;2023-02-28T00:43:18;102034.2461;;;;
44734;BME280;30462;52.446;-1.930;2023-02-28T00:44:18;102033.6406;;;;
44734;BME280;30462;52.446;-1.930;2023-02-28T00:45:18;102035.0625;;;;
44734;BME280;30462;52.446;-1.930;2023-02-28T00:46:18;102037.5078;;;;
44734;BME280;30462;52.446;-1.930;2023-02-28T00:47:18;102040.5195;;;;
44734;BME280;30462;52.446;-1.930;2023-02-28T00:48:18;102039.9414;;;;
44734;BME280;30462;52.446;-1.930;2023-02-28T00:49:18;102038.9297;;;;
44734;BME280;30462;52.446;-1.930;2023-02-28T00:50:18;102043.4844;;;;
44734;BME280;30462;52.446;-1.930;2023-02-28T00:51:17;102046.3359;;;;
44734;BME280;30462;52.446;-1.930;2023-02-28T00:52:18;102045.4297;;;;
44734;BME280;30462;52.446;-1.930;2023-02-28T00:53:18;102046.7695;;;;
44734;BME280;30462;52.446;-1.930;2023-02-28T00:54:18;102045.7109;;;;
44734;BME280;30462;52.446;-1.930;2023-02-28T00:55:18;102049.8633;;;;
44734;BME280;30462;52.446;-1.930;2023-02-28T00:56:18;102046.1563;;;;
44734;BME280;30462;52.446;-1.930;2023-02-28T00:57:18;102049.1016;;;;
44734;BME280;30462;52.446;-1.930;2023-02-28T00:58:18;102045.2695;;;;
44734;BME280;30462;52.446;-1.930;2023-02-28T00:59:18;102044.7891;;;;
44734;BME280;30462;52.446;-1.930;2023-02-28T01:00:18;102044.332;;;;
44734;BME280;30462;52.446;-1.930;2023-02-28T01:01:18;102043.6797;;;;
44734;BME280;30462;52.446;-1.930;2023-02-28T01:02:18;102044.9844;;;;
44734;BME280;30462;52.446;-1.930;2023-02-28T01:03:18;102043.2305;;;;
44734;BME280;30462;52.446;-1.930;2023-02-28T01:04:18;102048.4141;;;;
44734;BME280;30462;52.446;-1.930;2023-02-28T01:05:18;102046.4961;;;;
44734;BME280;30462;52.446;-1.930;2023-02-28T01:06:18;102048.5313;;;;
44734;BME280;30462;52.446;-1.930;2023-02-28T01:07:18;102051.6641;;;;
44734;BME280;30462;52.446;-1.930;2023-02-28T01:08:18;102049.6641;;;;
44734;BME280;30462;52.446;-1.930;2023-02-28T01:09:18;102048.2383;;;;
44734;BME280;30462;52.446;-1.930;2023-02-28T01:10:18;102047.707;;;;
44734;BME280;30462;52.446;-1.930;2023-02-28T01:11:19;102042.5039;;;;
44734;BME280;30462;52.446;-1.930;2023-02-28T01:12:18;102044.3281;;;;
44734;BME280;30462;52.446;-1.930;2023-02-28T01:13:18;102049.9453;;;;
44734;BME280;30462;52.446;-1.930;2023-02-28T01:14:18;102051.2109;;;;
44734;BME280;30462;52.446;-1.930;2023-02-28T01:15:18;102047.3828;;;;
44734;BME280;30462;52.446;-1.930;2023-02-28T01:16:18;102051.5742;;;;
44734;BME280;30462;52.446;-1.930;2023-02-28T01:17:18;102048.8906;;;;
44734;BME280;30462;52.446;-1.930;2023-02-28T01:18:18;102049.4648;;;;
44734;BME280;30462;52.446;-1.930;2023-02-28T01:19:17;102048.1563;;;;
44734;BME280;30462;52.446;-1.930;2023-02-28T01:20:18;102053.5742;;;;
44734;BME280;30462;52.446;-1.930;2023-02-28T01:21:19;102050.8086;;;;
44734;BME280;30462;52.446;-1.930;2023-02-28T01:22:18;102049.7109;;;;
44734;BME280;30462;52.446;-1.930;2023-02-28T01:23:18;102050.4922;;;;
44734;BME280;30462;52.446;-1.930;2023-02-28T01:24:18;102054.3203;;;;
44734;BME280;30462;52.446;-1.930;2023-02-28T01:25:18;102053.2656;;;;
44734;BME280;30462;52.446;-1.930;2023-02-28T01:26:19;102050.8984;;;;
44734;BME280;30462;52.446;-1.930;2023-02-28T01:27:18;102052.4883;;;;
44734;BME280;30462;52.446;-1.930;2023-02-28T01:28:18;102053.7109;;;;
44734;BME280;30462;52.446;-1.930;2023-02-28T01:29:18;102052.418;;;;
44734;BME280;30462;52.446;-1.930;2023-02-28T01:30:18;102055.918;;;;
44734;BME280;30462;52.446;-1.930;2023-02-28T01:31:18;102052.9492;;;;
44734;BME280;30462;52.446;-1.930;2023-02-28T01:32:18;102056.4531;;;;
44734;BME280;30462;52.446;-1.930;2023-02-28T01:33:18;102051.4922;;;;
44734;BME280;30462;52.446;-1.930;2023-02-28T01:34:18;102052.4258;;;;
44734;BME280;30462;52.446;-1.930;2023-02-28T01:35:18;102051.6133;;;;
44734;BME280;30462;52.446;-1.930;2023-02-28T01:36:19;102054.5352;;;;
44734;BME280;30462;52.446;-1.930;2023-02-28T01:37:18;102054.1289;;;;
44734;BME280;30462;52.446;-1.930;2023-02-28T01:38:18;102058.2305;;;;
44734;BME280;30462;52.446;-1.930;2023-02-28T01:39:18;102057.2969;;;;
44734;BME280;30462;52.446;-1.930;2023-02-28T01:40:18;102058.9063;;;;
44734;BME280;30462;52.446;-1.930;2023-02-28T01:41:19;102051.6523;;;;
44734;BME280;30462;52.446;-1.930;2023-02-28T01:42:18;102054.8242;;;;
44734;BME280;30462;52.446;-1.930;2023-02-28T01:43:21;102058.043;;;;
44734;BME280;30462;52.446;-1.930;2023-02-28T01:45:19;102055.0469;;;;
44734;BME280;30462;52.446;-1.930;2023-02-28T01:46:18;102051.6367;;;;
44734;BME280;30462;52.446;-1.930;2023-02-28T01:47:18;102054.1211;;;;
44734;BME280;30462;52.446;-1.930;2023-02-28T01:48:18;102055.7461;;;;
44734;BME280;30462;52.446;-1.930;2023-02-28T01:49:18;102057.3086;;;;
44734;BME280;30462;52.446;-1.930;2023-02-28T01:50:19;102051.0039;;;;
44734;BME280;30462;52.446;-1.930;2023-02-28T01:51:19;102054.5391;;;;
44734;BME280;30462;52.446;-1.930;2023-02-28T01:52:17;102055.5195;;;;
44734;BME280;30462;52.446;-1.930;2023-02-28T01:53:19;102060.8516;;;;
44734;BME280;30462;52.446;-1.930;2023-02-28T01:54:20;102057.6367;;;;
44734;BME280;30462;52.446;-1.930;2023-02-28T01:55:19;102059.2461;;;;
44734;BME280;30462;52.446;-1.930;2023-02-28T01:56:19;102058.0273;;;;
44734;BME280;30462;52.446;-1.930;2023-02-28T01:57:18;102055.2578;;;;
44734;BME280;30462;52.446;-1.930;2023-02-28T01:58:18;102058.5625;;;;
44734;BME280;30462;52.446;-1.930;2023-02-28T01:59:20;102058.5742;;;;
44734;BME280;30462;52.446;-1.930;2023-02-28T02:00:19;102058.6992;;;;
44734;BME280;30462;52.446;-1.930;2023-02-28T02:01:18;102056.1719;;;;
44734;BME280;30462;52.446;-1.930;2023-02-28T02:02:19;102053.1992;;;;
44734;BME280;30462;52.446;-1.930;2023-02-28T02:03:18;102055.1953;;;;
44734;BME280;30462;52.446;-1.930;2023-02-28T02:04:18;102054.2695;;;;
44734;BME280;30462;52.446;-1.930;2023-02-28T02:05:19;102052.1953;;;;
44734;BME280;30462;52.446;-1.930;2023-02-28T02:06:18;102057.4414;;;;
44734;BME280;30462;52.446;-1.930;2023-02-28T02:07:18;102057.5117;;;;
44734;BME280;30462;52.446;-1.930;2023-02-28T02:08:19;102057.3945;;;;
44734;BME280;30462;52.446;-1.930;2023-02-28T02:09:18;102053.7695;;;;
44734;BME280;30462;52.446;-1.930;2023-02-28T02:10:21;102057.5547;;;;
44734;BME280;30462;52.446;-1.930;2023-02-28T02:11:19;102053.4336;;;;
44734;BME280;30462;52.446;-1.930;2023-02-28T02:12:23;102054.4063;;;;
44734;BME280;30462;52.446;-1.930;2023-02-28T02:13:21;102054.4063;;;;
44734;BME280;30462;52.446;-1.930;2023-02-28T02:15:19;102053.2266;;;;
44734;BME280;30462;52.446;-1.930;2023-02-28T02:17:20;102053.5547;;;;
44734;BME280;30462;52.446;-1.930;2023-02-28T02:18:20;102052.707;;;;
44734;BME280;30462;52.446;-1.930;2023-02-28T02:22:22;102052.4961;;;;
44734;BME280;30462;52.446;-1.930;2023-02-28T02:25:19;102055.8711;;;;
44734;BME280;30462;52.446;-1.930;2023-02-28T02:35:18;102046.5977;;;;
44734;BME280;30462;52.446;-1.930;2023-02-28T02:36:19;102041.7148;;;;
44734;BME280;30462;52.446;-1.930;2023-02-28T02:38:24;102040.7344;;;;
44734;BME280;30462;52.446;-1.930;2023-02-28T02:39:19;102042.9219;;;;
44734;BME280;30462;52.446;-1.930;2023-02-28T02:40:19;102044.7656;;;;
44734;BME280;30462;52.446;-1.930;2023-02-28T02:41:19;102043.9961;;;;
44734;BME280;30462;52.446;-1.930;2023-02-28T02:42:20;102042.6445;;;;
44734;BME280;30462;52.446;-1.930;2023-02-28T02:43:18;102043.1055;;;;
44734;BME280;30462;52.446;-1.930;2023-02-28T02:44:19;102043.4219;;;;
44734;BME280;30462;52.446;-1.930;2023-02-28T02:45:20;102045.543;;;;
44734;BME280;30462;52.446;-1.930;2023-02-28T02:46:19;102044.4883;;;;
44734;BME280;30462;52.446;-1.930;2023-02-28T02:47:18;102042.2891;;;;
44734;BME280;30462;52.446;-1.930;2023-02-28T02:48:18;102042.0078;;;;
44734;BME280;30462;52.446;-1.930;2023-02-28T02:49:20;102042.2891;;;;
44734;BME280;30462;52.446;-1.930;2023-02-28T02:50:19;102041.3906;;;;
44734;BME280;30462;52.446;-1.930;2023-02-28T02:51:18;102041.3086;;;;
44734;BME280;30462;52.446;-1.930;2023-02-28T02:52:20;102037.8438;;;;
44734;BME280;30462;52.446;-1.930;2023-02-28T02:53:18;102038.4883;;;;
44734;BME280;30462;52.446;-1.930;2023-02-28T02:54:19;102038.8516;;;;
44734;BME280;30462;52.446;-1.930;2023-02-28T02:55:18;102034.6641;;;;
44734;BME280;30462;52.446;-1.930;2023-02-28T02:56:18;102035.6875;;;;
44734;BME280;30462;52.446;-1.930;2023-02-28T02:57:20;102034.1094;;;;
44734;BME280;30462;52.446;-1.930;2023-02-28T02:58:18;102037.3281;;;;
44734;BME280;30462;52.446;-1.930;2023-02-28T02:59:19;102033.9063;;;;
44734;BME280;30462;52.446;-1.930;2023-02-28T03:00:19;102031.9844;;;;
44734;BME280;30462;52.446;-1.930;2023-02-28T03:01:18;102031.2461;;;;
44734;BME280;30462;52.446;-1.930;2023-02-28T03:02:18;102030.5898;;;;
44734;BME280;30462;52.446;-1.930;2023-02-28T03:03:18;102030.668;;;;
44734;BME280;30462;52.446;-1.930;2023-02-28T03:04:19;102033.4766;;;;
44734;BME280;30462;52.446;-1.930;2023-02-28T03:05:20;102033.3164;;;;
44734;BME280;30462;52.446;-1.930;2023-02-28T03:06:18;102033.4375;;;;
44734;BME280;30462;52.446;-1.930;2023-02-28T03:07:18;102039.7773;;;;
44734;BME280;30462;52.446;-1.930;2023-02-28T03:08:17;102040.0234;;;;
44734;BME280;30462;52.446;-1.930;2023-02-28T03:09:18;102040.1094;;;;
44734;BME280;30462;52.446;-1.930;2023-02-28T03:11:18;102041.1641;;;;
44734;BME280;30462;52.446;-1.930;2023-02-28T03:12:18;102035.6719;;;;
44734;BME280;30462;52.446;-1.930;2023-02-28T03:15:21;102029.8555;;;;
44734;BME280;30462;52.446;-1.930;2023-02-28T03:18:20;102025.8047;;;;
44734;BME280;30462;52.446;-1.930;2023-02-28T03:20:21;102029.3555;;;;
44734;BME280;30462;52.446;-1.930;2023-02-28T03:21:22;102029.8789;;;;
44734;BME280;30462;52.446;-1.930;2023-02-28T03:23:19;102032.3516;;;;
44734;BME280;30462;52.446;-1.930;2023-02-28T03:24:18;102029.0156;;;;
44734;BME280;30462;52.446;-1.930;2023-02-28T03:25:20;102031.7109;;;;
44734;BME280;30462;52.446;-1.930;2023-02-28T03:26:19;102032.4414;;;;
44734;BME280;30462;52.446;-1.930;2023-02-28T03:27:20;102029.6406;;;;
44734;BME280;30462;52.446;-1.930;2023-02-28T03:28:19;102028.5352;;;;
44734;BME280;30462;52.446;-1.930;2023-02-28T03:29:20;102029.3984;;;;
44734;BME280;30462;52.446;-1.930;2023-02-28T03:30:22;102029.8398;;;;
44734;BME280;30462;52.446;-1.930;2023-02-28T03:31:20;102031.1445;;;;
44734;BME280;30462;52.446;-1.930;2023-02-28T03:32:19;102034.7695;;;;
44734;BME280;30462;52.446;-1.930;2023-02-28T03:33:19;102033.3398;;;;
44734;BME280;30462;52.446;-1.930;2023-02-28T03:34:20;102030.668;;;;
44734;BME280;30462;52.446;-1.930;2023-02-28T03:35:19;102033.3516;;;;
44734;BME280;30462;52.446;-1.930;2023-02-28T03:36:18;102031.6406;;;;
44734;BME280;30462;52.446;-1.930;2023-02-28T03:37:19;102036.1445;;;;
44734;BME280;30462;52.446;-1.930;2023-02-28T03:38:19;102033.043;;;;
44734;BME280;30462;52.446;-1.930;2023-02-28T03:39:18;102035.2969;;;;
44734;BME280;30462;52.446;-1.930;2023-02-28T03:40:19;102034.3984;;;;
44734;BME280;30462;52.446;-1.930;2023-02-28T03:41:20;102031.8281;;;;
44734;BME280;30462;52.446;-1.930;2023-02-28T03:42:19;102031.0547;;;;
44734;BME280;30462;52.446;-1.930;2023-02-28T03:43:20;102030.5313;;;;
44734;BME280;30462;52.446;-1.930;2023-02-28T03:44:18;102030.9492;;;;
44734;BME280;30462;52.446;-1.930;2023-02-28T03:45:19;102030.9922;;;;
44734;BME280;30462;52.446;-1.930;2023-02-28T03:46:19;102030.1133;;;;
44734;BME280;30462;52.446;-1.930;2023-02-28T03:47:20;102029.5508;;;;
44734;BME280;30462;52.446;-1.930;2023-02-28T03:48:19;102031.832;;;;
44734;BME280;30462;52.446;-1.930;2023-02-28T03:49:19;102033.082;;;;
44734;BME280;30462;52.446;-1.930;2023-02-28T03:50:18;102031.9844;;;;
44734;BME280;30462;52.446;-1.930;2023-02-28T03:51:18;102029.793;;;;
44734;BME280;30462;52.446;-1.930;2023-02-28T03:52:18;102035.6992;;;;
44734;BME280;30462;52.446;-1.930;2023-02-28T03:53:19;102033.7031;;;;
44734;BME280;30462;52.446;-1.930;2023-02-28T03:54:19;102036.4258;;;;
44734;BME280;30462;52.446;-1.930;2023-02-28T03:55:18;102037.4141;;;;
44734;BME280;30462;52.446;-1.930;2023-02-28T03:56:19;102035.1641;;;;
44734;BME280;30462;52.446;-1.930;2023-02-28T03:57:21;102035.1172;;;;
44734;BME280;30462;52.446;-1.930;2023-02-28T03:58:20;102037.2617;;;;
44734;BME280;30462;52.446;-1.930;2023-02-28T03:59:19;102039.5859;;;;
44734;BME280;30462;52.446;-1.930;2023-02-28T04:00:20;102042.9648;;;;
44734;BME280;30462;52.446;-1.930;2023-02-28T04:01:21;102043.125;;;;
44734;BME280;30462;52.446;-1.930;2023-02-28T04:02:18;102043.6953;;;;
44734;BME280;30462;52.446;-1.930;2023-02-28T04:03:18;102041.4922;;;;
44734;BME280;30462;52.446;-1.930;2023-02-28T04:04:18;102039.0625;;;;
44734;BME280;30462;52.446;-1.930;2023-02-28T04:05:18;102036.7617;;;;
44734;BME280;30462;52.446;-1.930;2023-02-28T04:06:18;102037.4023;;;;
44734;BME280;30462;52.446;-1.930;2023-02-28T04:07:18;102042.1094;;;;
44734;BME280;30462;52.446;-1.930;2023-02-28T04:08:18;102042.9766;;;;
44734;BME280;30462;52.446;-1.930;2023-02-28T04:09:18;102043.7305;;;;
44734;BME280;30462;52.446;-1.930;2023-02-28T04:10:18;102046.5078;;;;
44734;BME280;30462;52.446;-1.930;2023-02-28T04:11:20;102045.7734;;;;
44734;BME280;30462;52.446;-1.930;2023-02-28T04:12:18;102047.4766;;;;
44734;BME280;30462;52.446;-1.930;2023-02-28T04:13:18;102045.0156;;;;
44734;BME280;30462;52.446;-1.930;2023-02-28T04:14:18;102046.5117;;;;
44734;BME280;30462;52.446;-1.930;2023-02-28T04:15:18;102046.4336;;;;
44734;BME280;30462;52.446;-1.930;2023-02-28T04:16:20;102045.8672;;;;
44734;BME280;30462;52.446;-1.930;2023-02-28T04:17:18;102041.8828;;;;
44734;BME280;30462;52.446;-1.930;2023-02-28T04:18:17;102039.6016;;;;
44734;BME280;30462;52.446;-1.930;2023-02-28T04:19:18;102037.6836;;;;
44734;BME280;30462;52.446;-1.930;2023-02-28T04:20:18;102042.9023;;;;
44734;BME280;30462;52.446;-1.930;2023-02-28T04:21:18;102041.6016;;;;
44734;BME280;30462;52.446;-1.930;2023-02-28T04:22:18;102039.1875;;;;
44734;BME280;30462;52.446;-1.930;2023-02-28T04:23:18;102039.5547;;;;
44734;BME280;30462;52.446;-1.930;2023-02-28T04:24:19;102043.4883;;;;
44734;BME280;30462;52.446;-1.930;2023-02-28T04:25:18;102043.793;;;;
44734;BME280;30462;52.446;-1.930;2023-02-28T04:26:18;102042.9883;;;;
44734;BME280;30462;52.446;-1.930;2023-02-28T04:27:18;102043.4258;;;;
44734;BME280;30462;52.446;-1.930;2023-02-28T04:28:18;102045.1289;;;;
44734;BME280;30462;52.446;-1.930;2023-02-28T04:29:19;102044.5039;;;;
44734;BME280;30462;52.446;-1.930;2023-02-28T04:30:18;102040.7109;;;;
44734;BME280;30462;52.446;-1.930;2023-02-28T04:31:18;102040.8711;;;;
44734;BME280;30462;52.446;-1.930;2023-02-28T04:32:18;102038.1211;;;;
44734;BME280;30462;52.446;-1.930;2023-02-28T04:33:17;102039.8633;;;;
44734;BME280;30462;52.446;-1.930;2023-02-28T04:34:19;102038.9375;;;;
44734;BME280;30462;52.446;-1.930;2023-02-28T04:35:18;102040.9414;;;;
44734;BME280;30462;52.446;-1.930;2023-02-28T04:36:18;102039.7969;;;;
44734;BME280;30462;52.446;-1.930;2023-02-28T04:37:18;102041.0742;;;;
44734;BME280;30462;52.446;-1.930;2023-02-28T04:38:18;102041.3008;;;;
44734;BME280;30462;52.446;-1.930;2023-02-28T04:39:18;102042.1992;;;;
44734;BME280;30462;52.446;-1.930;2023-02-28T04:40:18;102041.8359;;;;
44734;BME280;30462;52.446;-1.930;2023-02-28T04:41:18;102040.7188;;;;
44734;BME280;30462;52.446;-1.930;2023-02-28T04:42:18;102043.4453;;;;
44734;BME280;30462;52.446;-1.930;2023-02-28T04:43:18;102045.1328;;;;
44734;BME280;30462;52.446;-1.930;2023-02-28T04:44:18;102041.4219;;;;
44734;BME280;30462;52.446;-1.930;2023-02-28T04:45:18;102041.1875;;;;
44734;BME280;30462;52.446;-1.930;2023-02-28T04:46:18;102040.7852;;;;
44734;BME280;30462;52.446;-1.930;2023-02-28T04:47:18;102046.7188;;;;
44734;BME280;30462;52.446;-1.930;2023-02-28T04:48:18;102042.8633;;;;
44734;BME280;30462;52.446;-1.930;2023-02-28T04:49:18;102045.8672;;;;
44734;BME280;30462;52.446;-1.930;2023-02-28T04:50:18;102044.0508;;;;
44734;BME280;30462;52.446;-1.930;2023-02-28T04:51:18;102041.4141;;;;
44734;BME280;30462;52.446;-1.930;2023-02-28T04:52:18;102042.6914;;;;
44734;BME280;30462;52.446;-1.930;2023-02-28T04:53:18;102046;;;;
44734;BME280;30462;52.446;-1.930;2023-02-28T04:54:18;102044.6523;;;;
44734;BME280;30462;52.446;-1.930;2023-02-28T04:55:18;102042.0117;;;;
44734;BME280;30462;52.446;-1.930;2023-02-28T04:56:18;102044.375;;;;
44734;BME280;30462;52.446;-1.930;2023-02-28T04:57:17;102042.8789;;;;
44734;BME280;30462;52.446;-1.930;2023-02-28T04:58:17;102043.5625;;;;
44734;BME280;30462;52.446;-1.930;2023-02-28T04:59:18;102040.9023;;;;
44734;BME280;30462;52.446;-1.930;2023-02-28T05:00:18;102036.8086;;;;
44734;BME280;30462;52.446;-1.930;2023-02-28T05:01:23;102044.1797;;;;
44734;BME280;30462;52.446;-1.930;2023-02-28T05:02:18;102039.1641;;;;
44734;BME280;30462;52.446;-1.930;2023-02-28T05:03:18;102041.1992;;;;
44734;BME280;30462;52.446;-1.930;2023-02-28T05:04:18;102041.1367;;;;
44734;BME280;30462;52.446;-1.930;2023-02-28T05:05:18;102043.5117;;;;
44734;BME280;30462;52.446;-1.930;2023-02-28T05:06:18;102041.1484;;;;
44734;BME280;30462;52.446;-1.930;2023-02-28T05:07:18;102042.2383;;;;
44734;BME280;30462;52.446;-1.930;2023-02-28T05:08:18;102048.293;;;;
44734;BME280;30462;52.446;-1.930;2023-02-28T05:09:18;102043.4258;;;;
44734;BME280;30462;52.446;-1.930;2023-02-28T05:10:18;102046.3711;;;;
44734;BME280;30462;52.446;-1.930;2023-02-28T05:11:19;102048.3633;;;;
44734;BME280;30462;52.446;-1.930;2023-02-28T05:12:18;102045.7656;;;;
44734;BME280;30462;52.446;-1.930;2023-02-28T05:13:18;102046.6875;;;;
44734;BME280;30462;52.446;-1.930;2023-02-28T05:14:18;102046.0859;;;;
44734;BME280;30462;52.446;-1.930;2023-02-28T05:15:18;102042.5664;;;;
44734;BME280;30462;52.446;-1.930;2023-02-28T05:16:17;102042.9688;;;;
44734;BME280;30462;52.446;-1.930;2023-02-28T05:17:18;102050.2031;;;;
44734;BME280;30462;52.446;-1.930;2023-02-28T05:18:18;102046.5859;;;;
44734;BME280;30462;52.446;-1.930;2023-02-28T05:19:18;102048.5313;;;;
44734;BME280;30462;52.446;-1.930;2023-02-28T05:20:18;102050.9805;;;;
44734;BME280;30462;52.446;-1.930;2023-02-28T05:22:17;102050.9375;;;;
44734;BME280;30462;52.446;-1.930;2023-02-28T05:23:17;102048.3125;;;;
44734;BME280;30462;52.446;-1.930;2023-02-28T05:24:18;102055.4922;;;;
44734;BME280;30462;52.446;-1.930;2023-02-28T05:25:19;102055.8164;;;;
44734;BME280;30462;52.446;-1.930;2023-02-28T05:26:19;102054.7695;;;;
44734;BME280;30462;52.446;-1.930;2023-02-28T05:27:18;102057.4922;;;;
44734;BME280;30462;52.446;-1.930;2023-02-28T05:28:18;102055.5352;;;;
44734;BME280;30462;52.446;-1.930;2023-02-28T05:29:17;102056.1484;;;;
44734;BME280;30462;52.446;-1.930;2023-02-28T05:30:18;102056.75;;;;
44734;BME280;30462;52.446;-1.930;2023-02-28T05:31:18;102057.4453;;;;
44734;BME280;30462;52.446;-1.930;2023-02-28T05:32:18;102059.1992;;;;
44734;BME280;30462;52.446;-1.930;2023-02-28T05:33:18;102061.9258;;;;
44734;BME280;30462;52.446;-1.930;2023-02-28T05:34:18;102063.6328;;;;
44734;BME280;30462;52.446;-1.930;2023-02-28T05:35:18;102063.0859;;;;
44734;BME280;30462;52.446;-1.930;2023-02-28T05:36:18;102064.6797;;;;
44734;BME280;30462;52.446;-1.930;2023-02-28T05:37:17;102069.3594;;;;
44734;BME280;30462;52.446;-1.930;2023-02-28T05:38:18;102069.5;;;;
44734;BME280;30462;52.446;-1.930;2023-02-28T05:39:18;102071.168;;;;
44734;BME280;30462;52.446;-1.930;2023-02-28T05:40:18;102069.4492;;;;
44734;BME280;30462;52.446;-1.930;2023-02-28T05:41:18;102068.5469;;;;
44734;BME280;30462;52.446;-1.930;2023-02-28T05:42:18;102074.3008;;;;
44734;BME280;30462;52.446;-1.930;2023-02-28T05:43:17;102073.9805;;;;
44734;BME280;30462;52.446;-1.930;2023-02-28T05:44:18;102074.9727;;;;
44734;BME280;30462;52.446;-1.930;2023-02-28T05:45:18;102074.2422;;;;
44734;BME280;30462;52.446;-1.930;2023-02-28T05:46:18;102078.3789;;;;
44734;BME280;30462;52.446;-1.930;2023-02-28T05:47:18;102075.3438;;;;
44734;BME280;30462;52.446;-1.930;2023-02-28T05:48:18;102071.7695;;;;
44734;BME280;30462;52.446;-1.930;2023-02-28T05:49:18;102074.3477;;;;
44734;BME280;30462;52.446;-1.930;2023-02-28T05:50:18;102076.7813;;;;
44734;BME280;30462;52.446;-1.930;2023-02-28T05:51:18;102076.4922;;;;
44734;BME280;30462;52.446;-1.930;2023-02-28T05:52:18;102077.7969;;;;
44734;BME280;30462;52.446;-1.930;2023-02-28T05:53:17;102080.0742;;;;
44734;BME280;30462;52.446;-1.930;2023-02-28T05:54:18;102081.8008;;;;
44734;BME280;30462;52.446;-1.930;2023-02-28T05:55:18;102084.3633;;;;
44734;BME280;30462;52.446;-1.930;2023-02-28T05:56:18;102086.1914;;;;
44734;BME280;30462;52.446;-1.930;2023-02-28T05:57:18;102083.8906;;;;
44734;BME280;30462;52.446;-1.930;2023-02-28T05:58:17;102083.75;;;;
44734;BME280;30462;52.446;-1.930;2023-02-28T05:59:17;102082.7852;;;;
44734;BME280;30462;52.446;-1.930;2023-02-28T06:00:18;102083.2188;;;;
44734;BME280;30462;52.446;-1.930;2023-02-28T06:01:20;102082.6328;;;;
44734;BME280;30462;52.446;-1.930;2023-02-28T06:02:18;102084.8945;;;;
44734;BME280;30462;52.446;-1.930;2023-02-28T06:03:18;102085.6445;;;;
44734;BME280;30462;52.446;-1.930;2023-02-28T06:04:18;102086.1484;;;;
44734;BME280;30462;52.446;-1.930;2023-02-28T06:05:18;102084.918;;;;
44734;BME280;30462;52.446;-1.930;2023-02-28T06:06:18;102082.5156;;;;
44734;BME280;30462;52.446;-1.930;2023-02-28T06:07:18;102085.1133;;;;
44734;BME280;30462;52.446;-1.930;2023-02-28T06:08:18;102085.4375;;;;
44734;BME280;30462;52.446;-1.930;2023-02-28T06:09:18;102083.3203;;;;
44734;BME280;30462;52.446;-1.930;2023-02-28T06:10:18;102087.8828;;;;
44734;BME280;30462;52.446;-1.930;2023-02-28T06:11:18;102089.0313;;;;